Time;durP1;ratioP1;P1;durP2;ratioP2;P2;SDS_P1;SDS_P2;PMS_P1;PMS_P2;Temp;Humidity;BMP_temperature;BMP_pressure;BME280_temperature;BME280_humidity;BME280_pressure;Samples;Min_cycle;Max_cycle;Signal;HPM_P1;HPM_P2
2023/09/16 00:01:47;;;;;;;10.13;3.75;;;;;;;11.46;100.00;101290.66;5081571;28;20098;-70
2023/09/16 00:04:14;;;;;;;5.10;2.78;;;;;;;11.49;100.00;101289.53;5069856;28;20056;-69
2023/09/16 00:06:40;;;;;;;12.23;3.67;;;;;;;11.44;100.00;101296.16;5068952;28;20072;-69
2023/09/16 00:09:07;;;;;;;10.30;3.22;;;;;;;11.43;100.00;101291.81;5068872;28;20045;-69
2023/09/16 00:11:34;;;;;;;7.32;3.13;;;;;;;11.43;100.00;101299.88;5068851;28;20052;-68
2023/09/16 00:14:00;;;;;;;6.53;3.05;;;;;;;11.44;100.00;101292.63;5068849;28;20060;-68
2023/09/16 00:16:29;;;;;;;11.13;3.05;;;;;;;11.44;100.00;101293.47;5068756;28;20135;-68
2023/09/16 00:18:57;;;;;;;11.25;3.05;;;;;;;11.39;100.00;101292.25;5068729;28;20080;-69
2023/09/16 00:21:24;;;;;;;7.53;3.10;;;;;;;11.36;100.00;101293.41;5068358;28;20136;-69
2023/09/16 00:23:52;;;;;;;7.80;3.55;;;;;;;11.29;100.00;101294.16;5068208;28;20098;-68
2023/09/16 00:26:19;;;;;;;6.93;3.53;;;;;;;11.30;100.00;101294.00;5067764;28;20114;-68
2023/09/16 00:28:45;;;;;;;7.07;3.13;;;;;;;11.25;100.00;101295.47;5050046;28;20492;-69
2023/09/16 00:31:12;;;;;;;5.57;2.88;;;;;;;11.25;100.00;101290.09;5069375;28;20041;-70
2023/09/16 00:33:39;;;;;;;8.45;3.40;;;;;;;11.26;100.00;101289.94;5069158;28;20086;-69
2023/09/16 00:36:06;;;;;;;7.28;3.22;;;;;;;11.25;100.00;101290.09;5067670;28;20111;-69
2023/09/16 00:38:33;;;;;;;6.70;3.38;;;;;;;11.22;100.00;101288.56;5068527;28;20055;-69
2023/09/16 00:40:59;;;;;;;14.43;3.90;;;;;;;11.16;100.00;101283.78;5067073;28;20059;-68
2023/09/16 00:43:26;;;;;;;6.97;3.30;;;;;;;11.10;100.00;101279.00;5068774;28;20055;-70
2023/09/16 00:45:53;;;;;;;6.05;3.10;;;;;;;11.07;100.00;101279.31;5068545;28;20455;-68
2023/09/16 00:48:19;;;;;;;9.93;3.13;;;;;;;11.09;100.00;101286.22;5069983;28;20052;-70
2023/09/16 00:50:46;;;;;;;9.32;3.55;;;;;;;11.05;100.00;101278.63;5072138;28;20492;-70
2023/09/16 00:53:15;;;;;;;10.88;4.10;;;;;;;11.02;100.00;101276.22;5072314;28;20044;-70
2023/09/16 00:55:44;;;;;;;8.75;3.30;;;;;;;11.02;100.00;101266.31;5072652;28;20048;-70
2023/09/16 00:58:11;;;;;;;5.07;3.45;;;;;;;11.00;100.00;101273.72;5072686;28;20443;-69
2023/09/16 01:00:38;;;;;;;9.02;3.65;;;;;;;10.91;100.00;101264.69;5071708;28;20036;-69
2023/09/16 01:03:06;;;;;;;7.28;3.58;;;;;;;10.87;100.00;101262.47;5071679;28;20049;-69
2023/09/16 01:09:22;;;;;;;8.57;3.83;;;;;;;10.83;100.00;101256.56;5056116;28;20056;-69
2023/09/16 01:11:49;;;;;;;9.75;4.05;;;;;;;10.88;100.00;101264.16;5071493;28;20041;-69
2023/09/16 01:14:16;;;;;;;8.98;3.80;;;;;;;10.79;100.00;101255.16;5072064;28;20056;-69
2023/09/16 01:16:48;;;;;;;5.90;3.20;;;;;;;10.83;100.00;101248.50;5054313;28;20126;-69
2023/09/16 01:19:32;;;;;;;9.82;3.38;;;;;;;10.69;100.00;101249.00;5071859;28;20063;-68
2023/09/16 01:22:01;;;;;;;9.20;3.38;;;;;;;10.68;100.00;101253.50;5070360;28;20094;-69
2023/09/16 01:24:27;;;;;;;7.07;3.63;;;;;;;10.66;100.00;101249.28;5070491;28;20052;-69
2023/09/16 01:26:54;;;;;;;11.88;3.55;;;;;;;10.64;100.00;101246.72;5070998;28;20044;-69
2023/09/16 01:29:22;;;;;;;6.97;3.42;;;;;;;10.57;100.00;101237.59;5071455;28;20369;-69
2023/09/16 01:31:49;;;;;;;5.72;3.20;;;;;;;10.56;100.00;101241.28;5071259;28;20109;-69
2023/09/16 01:34:22;;;;;;;6.18;3.20;;;;;;;10.49;100.00;101243.66;5071364;28;20500;-69
2023/09/16 01:36:52;;;;;;;6.40;3.42;;;;;;;10.45;100.00;101239.59;5060028;28;20040;-69
2023/09/16 01:39:22;;;;;;;7.25;3.15;;;;;;;10.42;100.00;101237.19;5070525;28;20114;-71
2023/09/16 01:41:54;;;;;;;9.55;4.15;;;;;;;10.49;100.00;101238.31;5068937;28;20114;-69
2023/09/16 01:44:20;;;;;;;8.13;3.38;;;;;;;10.42;100.00;101241.72;5070290;28;20052;-69
2023/09/16 01:46:47;;;;;;;11.70;3.78;;;;;;;10.45;100.00;101241.44;5068298;28;20037;-70
2023/09/16 01:49:13;;;;;;;6.90;3.33;;;;;;;10.35;100.00;101235.25;5069823;28;20400;-70
2023/09/16 01:51:40;;;;;;;8.57;3.70;;;;;;;10.29;100.00;101231.31;5070424;28;20068;-69
2023/09/16 01:54:07;;;;;;;6.50;3.42;;;;;;;10.33;100.00;101227.34;5069595;28;20057;-70
2023/09/16 01:56:34;;;;;;;9.27;3.75;;;;;;;10.26;100.00;101229.75;5070368;28;20048;-69
2023/09/16 01:59:01;;;;;;;7.80;3.83;;;;;;;10.26;100.00;101227.06;5067829;28;20122;-69
2023/09/16 02:01:29;;;;;;;6.60;3.70;;;;;;;10.24;100.00;101226.38;5069142;28;20466;-68
2023/09/16 02:03:56;;;;;;;9.70;3.60;;;;;;;10.23;100.00;101232.72;5069439;28;20059;-66
2023/09/16 02:06:22;;;;;;;6.80;3.65;;;;;;;10.23;100.00;101231.88;5075743;28;20071;-66
2023/09/16 02:08:50;;;;;;;7.57;3.83;;;;;;;10.28;100.00;101229.63;5073122;28;20477;-66
2023/09/16 02:11:16;;;;;;;10.85;3.90;;;;;;;10.28;100.00;101219.75;5076825;28;20098;-65
2023/09/16 02:13:43;;;;;;;12.32;3.60;;;;;;;10.28;100.00;101224.25;5073835;28;20111;-64
2023/09/16 02:16:10;;;;;;;9.60;3.95;;;;;;;10.24;100.00;101214.81;5073990;28;20053;-66
2023/09/16 02:18:37;;;;;;;12.20;3.53;;;;;;;10.25;100.00;101220.03;5075858;28;20504;-67
2023/09/16 02:21:04;;;;;;;9.18;4.00;;;;;;;10.23;100.00;101215.78;5074679;28;20045;-65
2023/09/16 02:23:30;;;;;;;13.55;3.38;;;;;;;10.15;100.00;101216.53;5074631;28;20052;-65
2023/09/16 02:26:01;;;;;;;7.97;3.60;;;;;;;10.13;100.00;101220.34;5073597;28;20056;-66
2023/09/16 02:28:29;;;;;;;7.95;3.15;;;;;;;10.17;100.00;101213.72;5076254;28;20052;-66
2023/09/16 02:30:56;;;;;;;8.10;4.05;;;;;;;10.15;100.00;101208.47;5073256;28;20100;-66
2023/09/16 02:33:23;;;;;;;9.20;3.40;;;;;;;10.13;100.00;101220.34;5075535;28;20052;-66
2023/09/16 02:35:49;;;;;;;14.98;3.72;;;;;;;10.12;100.00;101213.28;5073536;28;20049;-66
2023/09/16 02:38:17;;;;;;;8.18;3.92;;;;;;;10.10;100.00;101209.91;5058711;28;20074;-66
2023/09/16 02:40:43;;;;;;;6.90;3.85;;;;;;;10.06;100.00;101220.06;5075607;28;20075;-66
2023/09/16 02:43:10;;;;;;;9.68;3.85;;;;;;;10.00;100.00;101204.59;5075359;28;20051;-66
2023/09/16 02:45:43;;;;;;;5.93;3.30;;;;;;;9.92;100.00;101202.59;5075629;28;20078;-65
2023/09/16 02:48:10;;;;;;;8.00;3.90;;;;;;;9.98;100.00;101196.69;5074871;28;20403;-67
2023/09/16 02:50:37;;;;;;;7.90;3.97;;;;;;;9.95;100.00;101204.16;5074738;28;20044;-67
2023/09/16 02:53:05;;;;;;;9.32;3.67;;;;;;;9.90;100.00;101191.19;5056343;28;20066;-67
2023/09/16 02:55:32;;;;;;;6.75;3.70;;;;;;;9.88;100.00;101198.53;5074325;28;20049;-65
2023/09/16 02:57:59;;;;;;;9.70;3.88;;;;;;;9.83;100.00;101198.13;5072963;28;20066;-67
2023/09/16 03:00:26;;;;;;;5.65;3.50;;;;;;;9.77;100.00;101187.97;5075526;28;20555;-66
2023/09/16 03:02:52;;;;;;;7.80;3.80;;;;;;;9.77;100.00;101193.34;5073092;28;20048;-67
2023/09/16 03:05:19;;;;;;;7.07;4.00;;;;;;;9.85;100.00;101190.78;5076166;28;20060;-67
2023/09/16 03:07:46;;;;;;;13.48;4.10;;;;;;;9.79;100.00;101189.53;5076166;28;20049;-66
2023/09/16 03:10:12;;;;;;;10.85;3.67;;;;;;;9.77;100.00;101193.34;5074378;28;20381;-66
2023/09/16 03:12:39;;;;;;;11.15;3.70;;;;;;;9.87;100.00;101190.66;5076297;28;20040;-68
2023/09/16 03:15:06;;;;;;;5.63;3.33;;;;;;;9.92;100.00;101194.56;5074952;28;20064;-65
2023/09/16 03:17:33;;;;;;;10.90;4.25;;;;;;;9.93;100.00;101188.25;5075815;28;20102;-66
2023/09/16 03:19:59;;;;;;;7.72;3.40;;;;;;;9.91;100.00;101192.88;5075001;28;20048;-65
2023/09/16 03:22:26;;;;;;;9.75;3.88;;;;;;;9.92;100.00;101191.03;5074672;28;20044;-66
2023/09/16 03:24:53;;;;;;;10.30;3.88;;;;;;;9.90;100.00;101191.19;5072753;28;20040;-65
2023/09/16 03:27:20;;;;;;;8.30;3.38;;;;;;;9.91;100.00;101186.69;5075408;28;20072;-67
2023/09/16 03:29:46;;;;;;;8.75;3.85;;;;;;;9.87;100.00;101187.97;5076325;28;20131;-64
2023/09/16 03:32:13;;;;;;;11.57;3.80;;;;;;;9.92;100.00;101191.88;5075248;28;20049;-64
2023/09/16 03:34:40;;;;;;;8.90;3.85;;;;;;;9.97;100.00;101189.63;5076982;28;20044;-67
2023/09/16 03:37:06;;;;;;;5.80;3.30;;;;;;;9.95;100.00;101183.56;5075172;28;20089;-67
2023/09/16 03:39:33;;;;;;;11.45;4.03;;;;;;;9.85;100.00;101190.78;5074361;28;20136;-67
2023/09/16 03:41:59;;;;;;;8.52;4.60;;;;;;;9.95;100.00;101178.19;5053960;28;20044;-66
2023/09/16 03:44:26;;;;;;;7.60;3.95;;;;;;;9.93;100.00;101160.59;5076205;28;20078;-66
2023/09/16 03:46:52;;;;;;;6.38;3.67;;;;;;;9.81;100.00;101167.94;5074979;28;20040;-66
2023/09/16 03:49:19;;;;;;;5.53;3.38;;;;;;;9.78;100.00;101158.34;5089478;28;20036;-69
2023/09/16 03:51:46;;;;;;;11.07;4.95;;;;;;;9.75;100.00;101164.03;5095320;28;20084;-70
2023/09/16 03:54:13;;;;;;;8.10;4.38;;;;;;;9.71;100.00;101151.88;5312385;22;20054;-70
2023/09/16 03:56:39;;;;;;;11.63;3.80;;;;;;;9.65;100.00;101151.63;5013088;28;20049;-70
2023/09/16 03:59:06;;;;;;;12.10;4.03;;;;;;;9.57;100.00;101155.00;5013364;28;20047;-71
2023/09/16 04:01:33;;;;;;;10.88;4.22;;;;;;;9.52;100.00;101155.44;5007117;28;20054;-66
2023/09/16 04:03:59;;;;;;;7.60;3.85;;;;;;;9.47;100.00;101148.81;4996472;28;20061;-66
2023/09/16 04:06:26;;;;;;;10.38;4.00;;;;;;;9.46;100.00;101147.13;4991704;28;20105;-66
2023/09/16 04:08:53;;;;;;;7.47;3.83;;;;;;;9.35;100.00;101145.44;4976624;28;20043;-64
2023/09/16 04:11:20;;;;;;;7.65;3.65;;;;;;;9.28;100.00;101138.97;4973038;28;20058;-65
2023/09/16 04:13:47;;;;;;;12.45;3.92;;;;;;;9.32;100.00;101140.38;4977454;28;20042;-65
2023/09/16 04:16:14;;;;;;;8.63;4.28;;;;;;;9.33;100.00;101142.06;4979872;28;20055;-66
2023/09/16 04:18:41;;;;;;;7.35;4.03;;;;;;;9.24;100.00;101140.25;4975816;28;20047;-67
2023/09/16 04:21:08;;;;;;;10.20;4.47;;;;;;;9.11;100.00;101139.66;4974480;28;20158;-66
2023/09/16 04:23:35;;;;;;;14.98;4.30;;;;;;;9.16;100.00;101137.38;4979547;28;20499;-66
2023/09/16 04:26:01;;;;;;;7.00;3.88;;;;;;;9.11;100.00;101153.03;4981084;28;20046;-64
2023/09/16 04:28:29;;;;;;;6.05;3.47;;;;;;;9.06;100.00;101134.72;4980314;28;20051;-65
2023/09/16 04:30:57;;;;;;;8.70;3.92;;;;;;;8.96;100.00;101129.38;4980089;28;20115;-67
2023/09/16 04:33:24;;;;;;;12.85;4.05;;;;;;;8.95;100.00;101133.00;4981592;28;20046;-66
2023/09/16 04:35:51;;;;;;;21.92;4.32;;;;;;;8.91;100.00;101133.44;4979121;28;20475;-66
2023/09/16 04:38:18;;;;;;;11.60;4.38;;;;;;;8.95;100.00;101135.69;4980307;28;20051;-65
2023/09/16 04:40:46;;;;;;;10.20;4.22;;;;;;;8.89;100.00;101138.09;4980654;28;20117;-66
2023/09/16 04:43:15;;;;;;;9.88;4.30;;;;;;;8.86;100.00;101133.84;4981727;28;20054;-64
2023/09/16 04:45:44;;;;;;;12.43;4.55;;;;;;;8.93;100.00;101140.34;4976486;28;20399;-69
2023/09/16 04:48:13;;;;;;;13.55;4.32;;;;;;;9.02;100.00;101150.22;4972040;28;20102;-69
2023/09/16 04:50:47;;;;;;;9.85;4.00;;;;;;;8.96;100.00;101150.78;4973512;28;20050;-69
2023/09/16 04:53:14;;;;;;;8.05;3.95;;;;;;;9.01;100.00;101147.66;4972866;28;20109;-69
2023/09/16 04:55:41;;;;;;;8.77;3.80;;;;;;;9.03;100.00;101156.41;4990836;28;20094;-68
2023/09/16 04:58:08;;;;;;;12.07;3.80;;;;;;;8.95;100.00;101165.13;4993659;28;20392;-69
2023/09/16 05:00:35;;;;;;;7.65;3.97;;;;;;;9.02;100.00;101158.25;4991978;28;20517;-69
2023/09/16 05:03:02;;;;;;;10.43;4.22;;;;;;;8.99;100.00;101155.84;4992684;28;20051;-69
2023/09/16 05:05:29;;;;;;;9.88;4.03;;;;;;;8.98;100.00;101156.81;4992012;28;20051;-69
2023/09/16 05:07:57;;;;;;;12.30;4.10;;;;;;;8.96;100.00;101150.78;4991494;28;20093;-70
2023/09/16 05:10:23;;;;;;;9.43;3.90;;;;;;;8.96;100.00;101155.28;4992949;28;20050;-70
2023/09/16 05:12:50;;;;;;;9.20;4.25;;;;;;;8.97;100.00;101154.28;4993408;28;20396;-70
2023/09/16 05:15:17;;;;;;;6.68;4.35;;;;;;;8.98;100.00;101159.47;5028402;28;20069;-69
2023/09/16 05:17:43;;;;;;;12.52;3.92;;;;;;;9.01;100.00;101161.88;5015711;28;20103;-69
2023/09/16 05:20:10;;;;;;;10.00;4.20;;;;;;;9.08;100.00;101165.69;5032452;28;20152;-69
2023/09/16 05:22:38;;;;;;;14.52;4.93;;;;;;;9.03;100.00;101167.13;5032501;28;20081;-69
2023/09/16 05:25:06;;;;;;;7.82;3.90;;;;;;;9.05;100.00;101162.44;5031220;28;20045;-69
2023/09/16 05:27:33;;;;;;;10.73;4.38;;;;;;;8.97;100.00;101157.81;5030219;28;20053;-69
2023/09/16 05:30:01;;;;;;;12.65;4.82;;;;;;;8.97;100.00;101160.47;5029577;28;20512;-69
2023/09/16 05:32:29;;;;;;;10.82;4.50;;;;;;;8.97;100.00;101154.28;5031174;28;20065;-69
2023/09/16 05:34:57;;;;;;;9.85;4.18;;;;;;;9.01;100.00;101158.38;5028085;28;20041;-69
2023/09/16 05:37:23;;;;;;;8.75;4.00;;;;;;;8.99;100.00;101161.19;5029775;28;20049;-70
2023/09/16 05:39:50;;;;;;;16.10;4.68;;;;;;;9.10;100.00;101168.25;5030142;28;20115;-70
2023/09/16 05:42:17;;;;;;;9.63;4.25;;;;;;;9.17;100.00;101163.19;5031923;28;20049;-69
2023/09/16 05:44:43;;;;;;;11.52;4.32;;;;;;;9.18;100.00;101163.03;5031243;28;20559;-70
2023/09/16 05:47:10;;;;;;;8.30;4.65;;;;;;;9.23;100.00;101166.16;5030112;28;20065;-70
2023/09/16 05:49:37;;;;;;;9.80;4.05;;;;;;;9.26;100.00;101167.72;5031312;28;20413;-70
2023/09/16 05:52:03;;;;;;;10.57;4.65;;;;;;;9.31;100.00;101176.19;5031949;28;20053;-70
2023/09/16 05:54:30;;;;;;;10.10;4.20;;;;;;;9.35;100.00;101166.03;5030638;28;20432;-69
2023/09/16 05:56:57;;;;;;;9.43;4.20;;;;;;;9.34;100.00;101181.25;5031926;28;20046;-69
2023/09/16 05:59:23;;;;;;;7.63;4.07;;;;;;;9.44;100.00;101186.59;5031675;28;20084;-68
2023/09/16 06:01:50;;;;;;;8.52;4.05;;;;;;;9.57;100.00;101185.31;5031806;28;20046;-69
2023/09/16 06:04:17;;;;;;;10.23;4.38;;;;;;;9.64;100.00;101195.47;5032833;28;20057;-69
2023/09/16 06:06:45;;;;;;;10.35;4.32;;;;;;;9.79;100.00;101194.91;5031008;28;20051;-69
2023/09/16 06:09:12;;;;;;;10.60;4.63;;;;;;;9.84;100.00;101201.66;5029671;28;20053;-70
2023/09/16 06:11:39;;;;;;;13.43;4.60;;;;;;;9.99;100.00;101201.06;5030457;28;20057;-70
2023/09/16 06:14:05;;;;;;;9.00;3.92;;;;;;;10.06;100.00;101209.34;5019749;28;20054;-70
2023/09/16 06:16:33;;;;;;;12.15;4.22;;;;;;;10.12;100.00;101208.78;5012337;28;20085;-69
2023/09/16 06:19:00;;;;;;;13.82;4.35;;;;;;;10.13;100.00;101205.13;5012191;28;20061;-70
2023/09/16 06:21:28;;;;;;;9.18;4.50;;;;;;;10.27;100.00;101201.13;5011283;28;20050;-70
2023/09/16 06:23:55;;;;;;;14.45;4.50;;;;;;;10.37;100.00;101201.06;5011567;28;20049;-69
2023/09/16 06:26:21;;;;;;;9.45;4.70;;;;;;;10.53;100.00;101205.84;5012229;28;20077;-69
2023/09/16 06:28:48;;;;;;;10.15;4.65;;;;;;;10.59;100.00;101203.41;5011742;28;20413;-70
2023/09/16 06:31:15;;;;;;;15.70;5.03;;;;;;;10.74;100.00;101206.44;5011653;28;20053;-68
2023/09/16 06:33:43;;;;;;;12.77;4.70;;;;;;;10.76;100.00;101209.84;5011219;28;20066;-69
2023/09/16 06:36:10;;;;;;;9.55;4.13;;;;;;;11.03;100.00;101221.53;5009694;28;20061;-70
2023/09/16 06:38:36;;;;;;;10.30;4.50;;;;;;;11.04;100.00;101217.88;5010406;28;20046;-69
2023/09/16 06:41:04;;;;;;;11.98;4.50;;;;;;;11.01;100.00;101218.16;5011661;28;20065;-69
2023/09/16 06:43:30;;;;;;;9.18;4.20;;;;;;;11.25;100.00;101218.41;5011509;28;20046;-69
2023/09/16 06:45:57;;;;;;;11.55;3.70;;;;;;;11.35;100.00;101205.75;5011258;28;20080;-68
2023/09/16 06:48:23;;;;;;;13.77;4.38;;;;;;;11.65;100.00;101209.88;5011679;28;20053;-69
2023/09/16 06:50:51;;;;;;;8.73;4.25;;;;;;;11.61;100.00;101213.03;5009581;28;20046;-68
2023/09/16 06:53:19;;;;;;;9.95;4.30;;;;;;;12.07;100.00;101221.81;5011134;28;20054;-69
2023/09/16 06:55:47;;;;;;;9.27;4.60;;;;;;;12.51;100.00;101216.34;5010276;28;20046;-69
2023/09/16 06:58:14;;;;;;;12.70;6.97;;;;;;;12.81;100.00;101210.47;5011426;28;20054;-70
2023/09/16 07:00:41;;;;;;;8.55;3.58;;;;;;;12.86;100.00;101221.56;5011390;28;20377;-69
2023/09/16 07:03:07;;;;;;;11.35;4.35;;;;;;;12.88;100.00;101214.19;5011221;28;20049;-69
2023/09/16 07:05:34;;;;;;;9.15;4.22;;;;;;;13.18;100.00;101213.75;5010773;28;20053;-70
2023/09/16 07:08:01;;;;;;;6.40;3.90;;;;;;;13.27;100.00;101215.47;5007560;28;20465;-70
2023/09/16 07:10:27;;;;;;;13.15;4.10;;;;;;;13.43;100.00;101214.66;5010822;28;20050;-71
2023/09/16 07:12:54;;;;;;;7.93;3.88;;;;;;;13.30;100.00;101215.13;5011194;28;20046;-70
2023/09/16 07:15:21;;;;;;;9.15;4.10;;;;;;;13.68;100.00;101210.94;5011305;28;20054;-70
2023/09/16 07:17:47;;;;;;;10.98;4.13;;;;;;;14.21;100.00;101216.81;5011662;28;20094;-70
2023/09/16 07:20:14;;;;;;;10.68;3.60;;;;;;;14.21;100.00;101212.25;5009495;28;20415;-70
2023/09/16 07:22:40;;;;;;;12.32;4.40;;;;;;;15.06;100.00;101216.19;5011148;28;20103;-70
2023/09/16 07:25:07;;;;;;;12.43;3.97;;;;;;;15.21;100.00;101212.53;5010253;28;20046;-70
2023/09/16 07:27:36;;;;;;;9.65;4.53;;;;;;;15.54;100.00;101214.19;5010946;28;20057;-70
2023/09/16 07:30:04;;;;;;;7.97;4.43;;;;;;;15.54;100.00;101211.47;5010121;28;20091;-70
2023/09/16 07:32:30;;;;;;;23.40;8.43;;;;;;;16.33;100.00;101217.31;5011112;28;20575;-70
2023/09/16 07:34:57;;;;;;;10.80;4.85;;;;;;;16.64;100.00;101201.78;5009798;28;20056;-70
2023/09/16 07:37:24;;;;;;;7.93;3.72;;;;;;;16.94;100.00;101199.00;5010323;28;20056;-70
2023/09/16 07:39:51;;;;;;;13.20;4.10;;;;;;;17.31;99.32;101197.94;5010132;28;20104;-69
2023/09/16 07:42:18;;;;;;;8.23;3.92;;;;;;;17.28;97.61;101186.66;5010606;28;20053;-70
2023/09/16 07:44:45;;;;;;;8.65;3.92;;;;;;;16.82;100.00;101181.56;5011055;28;20449;-70
2023/09/16 07:47:12;;;;;;;7.75;3.60;;;;;;;16.67;100.00;101184.28;5009218;28;20101;-69
2023/09/16 07:49:39;;;;;;;14.30;4.35;;;;;;;17.17;99.27;101189.88;5009459;28;20053;-70
2023/09/16 07:52:05;;;;;;;8.35;3.25;;;;;;;17.59;95.24;101191.78;5010186;28;20061;-70
2023/09/16 07:54:32;;;;;;;5.90;3.47;;;;;;;17.51;90.94;101192.75;5010620;28;20498;-70
2023/09/16 07:56:59;;;;;;;9.13;3.88;;;;;;;17.38;95.29;101191.78;5009607;28;20075;-70
2023/09/16 07:59:26;;;;;;;10.18;3.80;;;;;;;17.50;92.47;101193.78;5009922;28;20422;-70
2023/09/16 08:01:54;;;;;;;7.30;3.30;;;;;;;17.45;90.98;101187.28;5010257;28;20485;-69
2023/09/16 08:04:21;;;;;;;8.75;3.75;;;;;;;17.60;96.21;101190.72;5010806;28;20482;-70
2023/09/16 08:06:49;;;;;;;11.68;4.10;;;;;;;18.20;88.32;101185.78;5011279;28;20069;-70
2023/09/16 08:09:17;;;;;;;10.35;3.63;;;;;;;18.19;83.25;101189.53;4991375;28;20046;-70
2023/09/16 08:11:44;;;;;;;6.78;3.47;;;;;;;18.08;87.13;101196.34;4991405;28;20445;-71
2023/09/16 08:14:10;;;;;;;7.47;3.53;;;;;;;17.74;89.35;101184.38;4980298;28;20077;-70
2023/09/16 08:16:37;;;;;;;7.88;3.90;;;;;;;16.56;100.00;101188.31;4971053;28;20055;-69
2023/09/16 08:19:03;;;;;;;9.25;3.65;;;;;;;17.13;100.00;101189.44;4971796;28;20121;-71
2023/09/16 08:21:34;;;;;;;8.25;3.65;;;;;;;17.83;94.87;101191.34;4971643;28;20472;-69
2023/09/16 08:24:00;;;;;;;6.53;3.53;;;;;;;18.85;83.21;101189.88;4970284;28;20129;-70
2023/09/16 08:26:28;;;;;;;10.48;3.78;;;;;;;18.91;79.26;101186.34;4970989;28;20392;-70
2023/09/16 08:28:56;;;;;;;7.65;3.33;;;;;;;19.27;78.73;101188.75;4969968;28;20051;-70
2023/09/16 08:31:23;;;;;;;6.93;4.30;;;;;;;20.00;73.13;101185.22;4971579;28;20058;-69
2023/09/16 08:33:51;;;;;;;6.07;3.33;;;;;;;20.09;68.77;101183.13;4971010;28;20095;-70
2023/09/16 08:36:18;;;;;;;5.00;3.75;;;;;;;20.18;67.89;101184.59;4971502;28;20097;-70
2023/09/16 08:38:44;;;;;;;11.50;3.72;;;;;;;20.40;65.52;101182.47;4976257;28;20069;-70
2023/09/16 08:41:16;;;;;;;6.75;3.53;;;;;;;20.26;66.62;101180.81;4991040;28;20565;-70
2023/09/16 08:43:46;;;;;;;6.00;3.40;;;;;;;19.98;66.56;101183.78;4990526;28;20070;-71
2023/09/16 08:46:17;;;;;;;7.72;3.92;;;;;;;19.35;70.90;101179.56;4990073;28;20340;-70
2023/09/16 08:48:46;;;;;;;7.32;3.72;;;;;;;19.19;74.21;101180.78;4990828;28;20450;-70
2023/09/16 08:51:17;;;;;;;6.40;3.75;;;;;;;19.40;72.74;101185.22;4990716;28;20054;-71
2023/09/16 08:53:44;;;;;;;10.40;3.42;;;;;;;19.22;75.36;101179.53;4982244;28;20450;-70
2023/09/16 08:56:12;;;;;;;7.78;3.38;;;;;;;17.95;88.30;101177.22;4989978;28;20141;-70
2023/09/16 08:58:40;;;;;;;9.07;3.38;;;;;;;17.83;94.08;101168.81;4989718;28;20412;-70
2023/09/16 09:01:09;;;;;;;10.60;4.05;;;;;;;18.00;95.12;101167.47;4990539;28;20121;-69
2023/09/16 09:03:36;;;;;;;9.50;3.80;;;;;;;18.80;90.88;101162.47;4989526;28;20077;-71
2023/09/16 09:06:04;;;;;;;6.97;4.13;;;;;;;19.86;77.46;101162.63;4989476;28;20066;-71
2023/09/16 09:08:33;;;;;;;6.97;3.30;;;;;;;21.16;67.80;101157.19;4991387;28;20522;-70
2023/09/16 09:10:59;;;;;;;8.73;3.53;;;;;;;21.10;65.17;101152.56;4993186;28;20043;-70
2023/09/16 09:13:28;;;;;;;7.65;3.58;;;;;;;21.97;61.27;101150.84;4993093;28;20054;-69
2023/09/16 09:15:59;;;;;;;6.97;3.45;;;;;;;21.23;61.15;101144.31;4993331;28;20042;-70
2023/09/16 09:18:28;;;;;;;5.00;3.22;;;;;;;22.75;57.17;101144.72;4992909;28;20050;-71
2023/09/16 09:20:55;;;;;;;5.35;2.85;;;;;;;23.24;52.75;101148.22;4992658;28;20042;-70
2023/09/16 09:23:24;;;;;;;7.57;3.35;;;;;;;23.48;51.90;101148.28;4991421;28;20050;-70
2023/09/16 09:25:50;;;;;;;5.45;3.58;;;;;;;23.40;51.66;101144.00;4991608;28;20042;-70
2023/09/16 09:28:17;;;;;;;6.55;3.17;;;;;;;24.15;50.73;101153.44;4993185;28;20137;-70
2023/09/16 09:30:45;;;;;;;3.30;2.60;;;;;;;24.06;49.46;101138.44;4992758;28;20054;-69
2023/09/16 09:33:17;;;;;;;8.85;3.47;;;;;;;22.91;51.91;101140.47;4992252;28;20112;-70
2023/09/16 09:35:44;;;;;;;8.52;3.42;;;;;;;21.87;54.72;101136.03;4991399;28;20603;-67
2023/09/16 09:38:11;;;;;;;6.00;2.70;;;;;;;21.58;58.29;101135.66;4993270;28;20050;-67
2023/09/16 09:40:37;;;;;;;4.95;3.08;;;;;;;20.91;60.13;101133.38;4991684;28;20105;-69
2023/09/16 09:43:05;;;;;;;6.72;3.70;;;;;;;21.48;60.04;101125.22;4992951;28;20054;-67
2023/09/16 09:45:41;;;;;;;10.60;2.90;;;;;;;22.68;56.06;101129.47;4992681;28;20137;-67
2023/09/16 09:48:07;;;;;;;11.27;3.00;;;;;;;22.66;54.46;101126.09;4992646;28;20140;-68
2023/09/16 09:50:35;;;;;;;7.20;3.33;;;;;;;21.34;57.67;101121.78;4993454;28;20080;-68
2023/09/16 09:53:02;;;;;;;9.88;2.85;;;;;;;21.66;58.51;101121.69;4993439;28;20050;-67
2023/09/16 09:55:30;;;;;;;7.80;3.40;;;;;;;22.31;57.30;101111.16;4993080;28;20138;-67
2023/09/16 09:57:58;;;;;;;6.20;3.03;;;;;;;22.48;56.26;101118.78;4991739;28;20392;-67
2023/09/16 10:00:26;;;;;;;4.00;2.97;;;;;;;22.41;54.10;101118.00;4993328;28;20077;-68
2023/09/16 10:02:52;;;;;;;8.45;3.10;;;;;;;22.70;53.00;101116.38;4992321;28;20439;-68
2023/09/16 10:05:22;;;;;;;7.45;3.13;;;;;;;21.16;56.17;101108.06;4992865;28;20054;-69
2023/09/16 10:07:51;;;;;;;7.38;2.97;;;;;;;20.07;63.46;101109.78;4993322;28;20101;-67
2023/09/16 10:10:21;;;;;;;7.95;3.38;;;;;;;22.04;59.34;101104.31;4993129;28;20068;-68
2023/09/16 10:12:51;;;;;;;5.60;2.50;;;;;;;23.02;53.77;101114.25;4992711;28;20046;-66
2023/09/16 10:15:24;;;;;;;8.55;2.95;;;;;;;23.51;52.58;101109.47;5027988;28;20045;-67
2023/09/16 10:17:51;;;;;;;5.45;3.17;;;;;;;23.79;50.75;101103.31;5029950;28;20049;-67
2023/09/16 10:20:19;;;;;;;4.80;2.65;;;;;;;22.48;53.99;101102.38;5031006;28;20073;-69
2023/09/16 10:22:45;;;;;;;6.65;3.22;;;;;;;23.36;54.07;101093.47;5031187;28;20045;-63
2023/09/16 10:25:12;;;;;;;6.75;3.03;;;;;;;23.98;50.25;101091.13;5036149;28;20041;-63
2023/09/16 10:27:52;;;;;;;8.02;3.50;;;;;;;24.35;48.90;101084.50;5035759;28;20053;-62
2023/09/16 10:30:20;;;;;;;7.60;3.08;;;;;;;24.94;48.72;101081.50;5016995;28;20042;-62
2023/09/16 10:32:46;;;;;;;5.80;2.70;;;;;;;25.99;45.77;101080.72;5034677;28;20049;-62
2023/09/16 10:35:13;;;;;;;6.38;3.30;;;;;;;25.25;46.39;101082.91;5034685;28;20115;-63
2023/09/16 10:37:44;;;;;;;7.63;3.08;;;;;;;24.82;46.55;101074.19;5034140;28;20042;-62
2023/09/16 10:40:12;;;;;;;6.18;3.13;;;;;;;24.50;48.48;101078.50;5033232;28;20076;-63
2023/09/16 10:42:41;;;;;;;8.07;2.90;;;;;;;24.55;48.74;101068.47;5033935;28;20041;-64
2023/09/16 10:45:11;;;;;;;6.78;3.08;;;;;;;24.03;49.39;101065.75;5033422;28;20073;-62
2023/09/16 10:47:38;;;;;;;8.50;3.22;;;;;;;24.58;49.09;101067.16;5033885;28;20359;-64
2023/09/16 10:50:05;;;;;;;6.22;3.40;;;;;;;23.30;50.39;101067.09;5033464;28;20053;-71
2023/09/16 10:52:55;;;;;;;3.60;2.75;;;;;;;23.88;50.31;101065.41;5027049;28;20045;-73
2023/09/16 10:55:29;;;;;;;6.53;3.05;;;;;;;23.51;51.68;101060.19;5030486;28;20053;-71
2023/09/16 10:58:02;;;;;;;8.90;3.30;;;;;;;22.37;55.13;101057.47;5032076;28;20050;-71
2023/09/16 11:00:49;;;;;;;8.70;3.22;;;;;;;21.68;56.36;101059.53;5030568;28;20483;-71
2023/09/16 11:03:23;;;;;;;6.57;3.28;;;;;;;21.78;58.50;101048.09;5031628;28;20045;-72
2023/09/16 11:05:50;;;;;;;5.55;3.17;;;;;;;21.87;58.30;101046.72;5028439;28;20083;-71
2023/09/16 11:08:17;;;;;;;6.47;3.00;;;;;;;21.50;58.65;101052.16;5030856;28;20065;-72
2023/09/16 11:10:43;;;;;;;6.40;3.22;;;;;;;21.98;59.27;101056.06;5031503;28;20370;-72
2023/09/16 11:13:13;;;;;;;6.45;3.38;;;;;;;22.02;59.06;101049.94;5027837;28;20042;-74
2023/09/16 11:15:40;;;;;;;8.45;3.80;;;;;;;22.48;57.38;101043.06;5010909;28;20513;-71
2023/09/16 11:18:10;;;;;;;7.20;3.53;;;;;;;21.92;58.48;101044.16;5010375;28;20144;-73
2023/09/16 11:20:38;;;;;;;3.72;2.92;;;;;;;22.39;57.12;101035.38;5011394;28;20453;-73
2023/09/16 11:23:06;;;;;;;8.55;3.53;;;;;;;22.58;56.67;101041.66;5009092;28;20050;-73
2023/09/16 11:25:34;;;;;;;7.28;3.60;;;;;;;22.57;57.55;101043.56;4992931;28;20049;-71